Time;durP1;ratioP1;P1;durP2;ratioP2;P2;SDS_P1;SDS_P2;PMS_P1;PMS_P2;Temp;Humidity;BMP_temperature;BMP_pressure;BME280_temperature;BME280_humidity;BME280_pressure;Samples;Min_cycle;Max_cycle;Signal;HPM_P1;HPM_P2
2020/12/05 00:02:23;;;;;;;2.25;1.33;;;13.30;67.10;;;;;;5013270;28;19971;-76
2020/12/05 00:05:03;;;;;;;1.58;1.17;;;13.30;67.10;;;;;;5013467;28;20120;-79
2020/12/05 00:07:34;;;;;;;2.72;1.33;;;13.30;67.20;;;;;;5017568;28;20569;-77
2020/12/05 00:10:07;;;;;;;1.52;1.00;;;13.30;67.20;;;;;;5027814;28;20080;-77
2020/12/05 00:12:41;;;;;;;1.70;1.30;;;13.30;67.20;;;;;;5009568;28;20076;-77
2020/12/05 00:15:11;;;;;;;2.30;1.35;;;13.30;67.20;;;;;;5030042;28;20382;-76
2020/12/05 00:17:43;;;;;;;2.25;1.50;;;13.30;67.20;;;;;;5011988;28;20041;-77
2020/12/05 00:20:20;;;;;;;2.03;1.20;;;13.30;67.20;;;;;;5008143;28;20475;-76
2020/12/05 00:22:52;;;;;;;2.83;1.30;;;13.30;67.20;;;;;;5010905;28;20095;-77
2020/12/05 00:25:26;;;;;;;2.50;1.35;;;13.30;67.20;;;;;;5011524;28;20367;-76
2020/12/05 00:28:03;;;;;;;1.83;1.20;;;13.30;67.10;;;;;;5009863;28;20030;-76
2020/12/05 00:30:37;;;;;;;1.83;1.08;;;13.30;67.20;;;;;;5027984;28;20026;-76
2020/12/05 00:33:07;;;;;;;3.47;1.15;;;13.30;67.20;;;;;;5010709;28;20025;-78
2020/12/05 00:35:35;;;;;;;2.70;1.30;;;13.30;67.10;;;;;;5034614;28;20022;-79
2020/12/05 00:38:03;;;;;;;;;;;13.30;67.10;;;;;;5028734;28;20029;-77
2020/12/05 00:40:35;;;;;;;2.65;1.17;;;13.30;67.10;;;;;;5012016;28;20358;-77
2020/12/05 00:43:05;;;;;;;3.33;1.65;;;13.30;67.10;;;;;;5011868;28;20137;-79
2020/12/05 00:45:35;;;;;;;2.35;1.50;;;13.30;67.10;;;;;;4992847;28;20029;-76
2020/12/05 00:48:08;;;;;;;1.40;1.08;;;13.30;67.10;;;;;;5029149;28;20034;-77
2020/12/05 00:50:38;;;;;;;3.30;1.30;;;13.30;67.10;;;;;;5027247;28;20040;-76
2020/12/05 00:53:15;;;;;;;1.48;0.98;;;13.30;67.10;;;;;;5010307;28;20064;-77
2020/12/05 00:55:51;;;;;;;4.85;1.00;;;13.30;67.10;;;;;;5010532;28;20124;-77
2020/12/05 00:58:22;;;;;;;2.72;1.50;;;13.30;67.10;;;;;;5010918;28;20029;-77
2020/12/05 01:00:49;;;;;;;2.22;1.38;;;13.30;67.10;;;;;;5008596;28;20034;-76
2020/12/05 01:03:28;;;;;;;1.65;1.23;;;13.30;67.10;;;;;;4995127;28;20494;-76
2020/12/05 01:06:01;;;;;;;1.45;1.00;;;13.30;67.10;;;;;;5007513;28;20121;-77
2020/12/05 01:08:32;;;;;;;2.42;1.27;;;13.30;67.10;;;;;;5007076;28;20022;-80
2020/12/05 01:11:11;;;;;;;2.88;1.95;;;13.30;67.10;;;;;;5014172;28;20030;-76
2020/12/05 01:14:08;;;;;;;2.05;1.17;;;13.30;67.10;;;;;;5001985;28;20022;-77
2020/12/05 01:16:44;;;;;;;2.03;1.23;;;13.30;67.10;;;;;;5006315;28;20030;-76
2020/12/05 01:19:19;;;;;;;2.38;1.30;;;13.30;67.10;;;;;;4960370;28;20078;-78
2020/12/05 01:21:45;;;;;;;3.10;1.20;;;13.30;67.10;;;;;;4986676;28;20041;-77
2020/12/05 01:24:25;;;;;;;2.75;1.38;;;13.30;67.10;;;;;;5012876;28;20049;-77
2020/12/05 01:26:57;;;;;;;1.80;1.30;;;13.30;67.10;;;;;;5004551;28;20033;-79
2020/12/05 01:29:30;;;;;;;1.55;1.00;;;13.30;67.10;;;;;;4991479;28;20030;-77
2020/12/05 01:31:59;;;;;;;2.72;1.98;;;13.30;67.10;;;;;;4986387;28;20503;-77
2020/12/05 01:34:30;;;;;;;2.55;1.20;;;13.30;67.10;;;;;;4994276;28;20041;-76
2020/12/05 01:37:07;;;;;;;2.08;1.17;;;13.30;67.20;;;;;;4990002;28;20042;-76
2020/12/05 01:39:41;;;;;;;1.60;1.20;;;13.30;67.20;;;;;;4983432;28;20034;-76
2020/12/05 01:42:18;;;;;;;2.65;1.48;;;13.30;67.20;;;;;;4973438;28;20065;-76
2020/12/05 01:44:48;;;;;;;1.45;1.10;;;13.30;67.20;;;;;;5004291;28;20030;-78
2020/12/05 01:47:29;;;;;;;3.05;1.20;;;13.30;67.20;;;;;;4990347;28;20042;-78
2020/12/05 01:49:57;;;;;;;1.98;1.20;;;13.30;67.20;;;;;;4980343;28;20030;-77
2020/12/05 01:52:25;;;;;;;;;;;13.30;67.10;;;;;;5007025;28;20022;-79
2020/12/05 01:54:56;;;;;;;2.20;1.13;;;13.30;67.10;;;;;;5010533;28;20380;-77
2020/12/05 01:57:25;;;;;;;1.70;1.27;;;13.30;67.20;;;;;;4994124;28;20090;-76
2020/12/05 02:00:14;;;;;;;1.83;1.00;;;13.30;67.10;;;;;;4980219;28;20093;-76
2020/12/05 02:02:51;;;;;;;1.73;1.10;;;13.30;67.20;;;;;;4993518;28;20022;-77
2020/12/05 02:05:42;;;;;;;1.63;1.13;;;13.30;67.10;;;;;;4999256;28;20414;-76
2020/12/05 02:08:13;;;;;;;2.70;1.60;;;13.30;67.10;;;;;;5032247;28;20387;-76
2020/12/05 02:10:56;;;;;;;4.70;1.83;;;13.30;67.10;;;;;;5011736;28;20454;-76
2020/12/05 02:13:53;;;;;;;1.88;0.98;;;13.30;67.10;;;;;;5026061;28;20428;-79
2020/12/05 02:16:31;;;;;;;1.65;1.13;;;13.30;67.10;;;;;;5030338;28;20493;-76
2020/12/05 02:18:58;;;;;;;1.88;1.00;;;13.30;67.10;;;;;;5007039;28;20025;-77
2020/12/05 02:21:29;;;;;;;1.92;1.10;;;13.30;67.10;;;;;;5012705;28;20033;-77
2020/12/05 02:24:07;;;;;;;2.75;1.17;;;13.30;67.10;;;;;;5015084;28;20025;-76
2020/12/05 02:26:37;;;;;;;1.70;1.20;;;13.30;67.20;;;;;;5029119;28;20124;-76
2020/12/05 02:29:16;;;;;;;2.03;1.15;;;13.30;67.30;;;;;;5033611;28;20030;-77
2020/12/05 02:31:49;;;;;;;3.15;1.23;;;13.30;67.30;;;;;;5013517;28;20021;-76
2020/12/05 02:34:29;;;;;;;1.77;1.13;;;13.30;67.30;;;;;;5002284;28;20368;-76
2020/12/05 02:37:08;;;;;;;3.33;1.13;;;13.30;67.30;;;;;;5029004;28;20088;-78
2020/12/05 02:39:42;;;;;;;2.35;1.00;;;13.30;67.30;;;;;;5012856;28;20029;-76
2020/12/05 02:42:25;;;;;;;1.83;1.25;;;13.30;67.30;;;;;;5014753;28;20117;-82
2020/12/05 02:45:08;;;;;;;1.15;0.93;;;13.30;67.30;;;;;;5036003;28;20052;-76
2020/12/05 02:48:05;;;;;;;1.52;0.80;;;13.30;67.30;;;;;;4998355;28;20036;-76
2020/12/05 02:50:44;;;;;;;2.05;1.02;;;13.30;67.20;;;;;;5031501;28;20141;-77
2020/12/05 02:53:17;;;;;;;1.70;1.20;;;13.30;67.20;;;;;;5031341;28;20099;-77
2020/12/05 02:55:47;;;;;;;3.00;1.00;;;13.20;67.20;;;;;;5015457;28;20028;-76
2020/12/05 02:58:16;;;;;;;2.70;1.20;;;13.30;67.30;;;;;;5015129;28;20029;-77
2020/12/05 03:00:55;;;;;;;2.10;1.02;;;13.30;67.30;;;;;;5016600;28;20083;-76
2020/12/05 03:03:28;;;;;;;1.88;1.23;;;13.30;67.30;;;;;;5019188;28;20048;-79
2020/12/05 03:06:00;;;;;;;3.05;1.30;;;13.30;67.30;;;;;;5027555;28;20026;-77
2020/12/05 03:08:30;;;;;;;1.58;1.13;;;13.30;67.20;;;;;;5014570;28;20029;-76
2020/12/05 03:11:08;;;;;;;1.17;0.93;;;13.30;67.20;;;;;;5032983;28;20083;-77
2020/12/05 03:13:47;;;;;;;1.45;1.00;;;13.30;67.20;;;;;;5012849;28;20017;-77
2020/12/05 03:16:14;;;;;;;2.30;1.20;;;13.30;67.20;;;;;;5013362;28;20497;-79
2020/12/05 03:18:53;;;;;;;2.17;1.20;;;13.30;67.20;;;;;;5029854;28;20029;-78
2020/12/05 03:21:27;;;;;;;1.55;1.20;;;13.30;67.20;;;;;;5006214;28;20029;-77
2020/12/05 03:24:06;;;;;;;1.23;0.90;;;13.30;67.20;;;;;;5029076;28;20029;-79
2020/12/05 03:26:46;;;;;;;3.10;1.67;;;13.30;67.10;;;;;;5000966;28;20518;-77
2020/12/05 03:29:18;;;;;;;1.88;0.98;;;13.30;67.10;;;;;;5009647;28;20411;-77
2020/12/05 03:32:31;;;;;;;2.58;1.20;;;13.30;67.20;;;;;;5015640;28;20384;-76
2020/12/05 03:34:51;;;;;;;1.65;1.00;;;13.30;67.20;;;;;;5019086;28;20475;-77
2020/12/05 03:37:24;;;;;;;1.58;1.00;;;13.30;67.20;;;;;;4993721;28;20045;-76
2020/12/05 03:40:09;;;;;;;2.30;0.90;;;13.30;67.10;;;;;;5014758;28;20681;-77
2020/12/05 03:42:39;;;;;;;1.35;0.95;;;13.30;67.20;;;;;;4996819;28;20128;-76
2020/12/05 03:45:31;;;;;;;2.05;1.20;;;13.30;67.10;;;;;;5030132;28;20040;-77
2020/12/05 03:48:12;;;;;;;2.03;1.23;;;13.30;67.10;;;;;;5030490;28;20069;-78
2020/12/05 03:50:45;;;;;;;2.72;1.65;;;13.30;67.10;;;;;;4994546;28;20029;-78
2020/12/05 03:53:23;;;;;;;4.78;1.30;;;13.30;67.10;;;;;;5006981;28;20030;-78
2020/12/05 03:55:55;;;;;;;1.95;1.00;;;13.30;67.20;;;;;;5035184;28;20471;-77
2020/12/05 03:58:23;;;;;;;1.45;1.10;;;13.30;67.20;;;;;;5026282;28;20042;-77
2020/12/05 04:00:52;;;;;;;3.03;1.30;;;13.30;67.10;;;;;;5004119;28;20030;-77
2020/12/05 04:03:20;;;;;;;1.27;0.88;;;13.30;67.10;;;;;;4996235;28;20038;-80
2020/12/05 04:05:53;;;;;;;;;;;13.30;67.10;;;;;;5012806;28;20124;-77
2020/12/05 04:08:23;;;;;;;3.10;1.42;;;13.30;67.10;;;;;;5012124;28;19913;-77
2020/12/05 04:10:56;;;;;;;2.28;1.50;;;13.30;67.10;;;;;;5029456;28;20061;-77
2020/12/05 04:13:38;;;;;;;1.60;1.30;;;13.30;67.10;;;;;;5023596;28;20558;-76
2020/12/05 04:16:08;;;;;;;2.22;1.27;;;13.20;67.10;;;;;;5014440;28;20029;-76
2020/12/05 04:18:44;;;;;;;2.08;1.60;;;13.30;67.10;;;;;;5026881;28;20041;-76
2020/12/05 04:21:28;;;;;;;1.35;1.25;;;13.20;67.10;;;;;;4995879;28;20061;-77
2020/12/05 04:23:56;;;;;;;2.03;1.20;;;13.30;67.10;;;;;;5028537;28;20025;-78
2020/12/05 04:26:29;;;;;;;1.70;1.00;;;13.30;67.10;;;;;;5007697;28;20030;-79
2020/12/05 04:28:59;;;;;;;1.38;1.17;;;13.30;67.10;;;;;;4996064;28;20049;-80
2020/12/05 04:31:54;;;;;;;1.95;1.38;;;13.30;67.10;;;;;;4992426;28;20030;-77
2020/12/05 04:34:26;;;;;;;1.55;1.17;;;13.30;67.10;;;;;;5022740;28;20029;-77
2020/12/05 04:37:06;;;;;;;1.27;1.00;;;13.30;67.10;;;;;;5014490;28;20041;-76
2020/12/05 04:39:42;;;;;;;1.60;1.20;;;13.30;67.10;;;;;;5021572;28;20036;-78
2020/12/05 04:42:30;;;;;;;2.03;1.33;;;13.20;67.10;;;;;;5012488;28;20033;-78
2020/12/05 04:45:16;;;;;;;2.03;1.30;;;13.30;67.10;;;;;;5032384;28;20044;-78
2020/12/05 04:48:03;;;;;;;2.85;1.17;;;13.30;67.10;;;;;;5032063;28;20033;-76
2020/12/05 04:50:35;;;;;;;1.10;0.98;;;13.30;67.10;;;;;;4997828;28;20072;-78
2020/12/05 04:53:14;;;;;;;1.52;1.05;;;13.20;67.10;;;;;;5031153;28;20036;-76
2020/12/05 04:55:59;;;;;;;1.25;1.02;;;13.30;67.10;;;;;;4994915;28;20458;-79
2020/12/05 04:58:32;;;;;;;2.03;1.45;;;13.30;67.10;;;;;;5020250;28;20113;-81
2020/12/05 05:01:29;;;;;;;2.47;1.30;;;13.20;67.20;;;;;;5018884;28;20045;-75
2020/12/05 05:04:21;;;;;;;1.10;1.00;;;13.20;67.20;;;;;;5024569;28;20071;-77
2020/12/05 05:07:03;;;;;;;1.70;1.10;;;13.30;67.20;;;;;;5014146;28;20026;-77
2020/12/05 05:09:35;;;;;;;1.45;1.15;;;13.20;67.20;;;;;;4996506;28;20080;-77
2020/12/05 05:12:23;;;;;;;2.08;1.13;;;13.20;67.10;;;;;;5028840;28;20076;-77
2020/12/05 05:15:30;;;;;;;1.30;1.17;;;13.30;67.20;;;;;;5018202;28;20126;-77
2020/12/05 05:18:03;;;;;;;1.27;1.00;;;13.20;67.30;;;;;;5004661;28;20121;-78
2020/12/05 05:20:34;;;;;;;1.48;1.08;;;13.20;67.40;;;;;;5020142;28;20029;-78
2020/12/05 05:23:19;;;;;;;2.15;1.33;;;13.30;67.40;;;;;;5011240;28;20463;-77
2020/12/05 05:26:02;;;;;;;1.65;1.23;;;13.20;67.40;;;;;;5010568;28;20079;-76
2020/12/05 05:28:38;;;;;;;1.25;1.08;;;13.20;67.40;;;;;;5009678;28;20029;-80
2020/12/05 05:31:22;;;;;;;1.33;1.10;;;13.20;67.40;;;;;;4983240;28;20022;-82
2020/12/05 05:33:56;;;;;;;1.42;1.17;;;13.20;67.40;;;;;;4996856;28;20026;-77
2020/12/05 05:36:30;;;;;;;2.05;1.23;;;13.30;67.40;;;;;;5004099;28;20374;-79
2020/12/05 05:39:08;;;;;;;2.22;1.40;;;13.20;67.40;;;;;;5013088;28;20028;-79
2020/12/05 05:42:00;;;;;;;2.08;1.10;;;13.30;67.30;;;;;;5011754;28;20045;-77
2020/12/05 05:44:32;;;;;;;2.28;1.30;;;13.20;67.30;;;;;;5026320;28;20033;-78
2020/12/05 05:47:03;;;;;;;4.13;1.15;;;13.20;67.30;;;;;;4994630;28;20912;-79
2020/12/05 05:49:34;;;;;;;1.63;1.13;;;13.30;67.30;;;;;;4998244;28;20028;-76
2020/12/05 05:52:07;;;;;;;3.15;1.30;;;13.30;67.30;;;;;;5026551;28;20022;-76
2020/12/05 05:54:37;;;;;;;2.40;1.30;;;13.20;67.30;;;;;;5006272;28;20018;-77
2020/12/05 05:57:14;;;;;;;1.98;1.17;;;13.30;67.30;;;;;;4998577;28;20036;-76
2020/12/05 05:59:57;;;;;;;;;;;;;;;;;;;;;
2020/12/05 06:02:41;;;;;;;;;;;;;;;;;;;;;
2020/12/05 06:05:16;;;;;;;2.58;1.30;;;13.20;67.30;;;;;;5031782;28;20516;-76
2020/12/05 06:07:47;;;;;;;2.58;1.23;;;13.30;67.30;;;;;;4998070;28;20042;-76
2020/12/05 06:10:18;;;;;;;2.38;1.40;;;13.20;67.30;;;;;;5013095;28;20013;-78
2020/12/05 06:12:57;;;;;;;3.03;1.42;;;13.30;67.30;;;;;;5029405;28;20029;-77
2020/12/05 06:15:24;;;;;;;1.88;1.10;;;13.20;67.30;;;;;;5020830;28;20080;-76
2020/12/05 06:18:11;;;;;;;1.45;1.27;;;13.30;67.30;;;;;;5033685;28;20026;-77
2020/12/05 06:20:47;;;;;;;2.30;1.20;;;13.20;67.20;;;;;;5020296;28;20030;-77
2020/12/05 06:23:31;;;;;;;1.73;1.25;;;13.30;67.20;;;;;;5009222;28;20064;-78
2020/12/05 06:26:23;;;;;;;2.22;1.33;;;13.30;67.30;;;;;;5005129;28;20026;-77
2020/12/05 06:28:49;;;;;;;2.88;1.30;;;13.30;67.40;;;;;;5011950;28;20195;-79
2020/12/05 06:32:04;;;;;;;3.50;1.55;;;13.30;67.40;;;;;;5029500;28;20030;-76
2020/12/05 06:34:37;;;;;;;5.80;1.58;;;13.30;67.40;;;;;;5036339;28;20017;-78
2020/12/05 06:37:30;;;;;;;2.30;1.33;;;13.30;67.40;;;;;;5009813;28;20029;-77
2020/12/05 06:40:13;;;;;;;1.35;1.08;;;13.30;67.40;;;;;;5032251;28;20559;-76
2020/12/05 06:42:44;;;;;;;1.42;1.10;;;13.30;67.40;;;;;;5019930;28;20025;-78
2020/12/05 06:45:30;;;;;;;2.38;1.60;;;13.30;67.40;;;;;;5024237;28;20060;-77
2020/12/05 06:48:15;;;;;;;1.45;1.15;;;13.20;67.40;;;;;;5007282;28;20029;-79
2020/12/05 06:50:45;;;;;;;4.07;1.50;;;13.30;67.40;;;;;;5012431;28;20322;-78
2020/12/05 06:53:24;;;;;;;1.60;1.15;;;13.30;67.40;;;;;;5032299;28;20411;-76
2020/12/05 06:56:15;;;;;;;1.75;1.10;;;13.30;67.40;;;;;;5011851;28;20017;-78
2020/12/05 06:58:54;;;;;;;2.25;1.20;;;13.30;67.40;;;;;;5012698;28;20033;-79
2020/12/05 07:01:52;;;;;;;3.10;1.27;;;13.30;67.30;;;;;;5005009;28;20399;-77
2020/12/05 07:04:23;;;;;;;1.17;1.08;;;13.30;67.30;;;;;;4997611;28;20042;-77
2020/12/05 07:06:53;;;;;;;1.15;0.98;;;13.30;67.30;;;;;;5025877;28;20021;-79
2020/12/05 07:09:52;;;;;;;1.88;1.33;;;13.30;67.30;;;;;;5036327;28;20022;-79
2020/12/05 07:12:43;;;;;;;2.72;1.45;;;13.30;67.30;;;;;;5030567;28;20485;-78
2020/12/05 07:15:25;;;;;;;2.83;1.25;;;13.30;67.20;;;;;;5025315;28;20044;-78
2020/12/05 07:17:58;;;;;;;1.73;1.20;;;13.30;67.20;;;;;;5032300;28;20075;-76
2020/12/05 07:20:28;;;;;;;1.67;1.27;;;13.30;67.20;;;;;;5017529;28;20025;-78
2020/12/05 07:23:00;;;;;;;1.83;1.20;;;13.20;67.20;;;;;;5008566;28;20030;-76
2020/12/05 07:25:33;;;;;;;1.90;1.30;;;13.30;67.30;;;;;;5019286;28;20045;-76
2020/12/05 07:28:08;;;;;;;1.63;1.30;;;13.30;67.20;;;;;;5013681;28;20021;-77
2020/12/05 07:31:04;;;;;;;2.03;1.20;;;13.30;67.20;;;;;;5011742;28;20489;-78
2020/12/05 07:33:37;;;;;;;2.63;1.30;;;13.30;67.20;;;;;;5030839;28;20049;-77
2020/12/05 07:36:17;;;;;;;2.70;1.40;;;13.30;67.10;;;;;;5028194;28;20053;-77
2020/12/05 07:38:47;;;;;;;1.63;1.13;;;13.30;67.10;;;;;;5027233;28;20104;-77
2020/12/05 07:41:34;;;;;;;1.92;1.20;;;13.30;67.10;;;;;;5010513;28;20022;-77
2020/12/05 07:44:11;;;;;;;1.58;1.20;;;13.30;67.10;;;;;;5009506;28;20018;-77
2020/12/05 07:46:51;;;;;;;2.08;1.67;;;13.30;67.10;;;;;;5007548;28;20047;-76
2020/12/05 07:49:33;;;;;;;1.85;1.35;;;13.30;67.10;;;;;;5032523;28;20032;-77
2020/12/05 07:52:02;;;;;;;1.85;1.25;;;13.30;67.10;;;;;;5024037;28;20356;-77
2020/12/05 07:55:18;;;;;;;;;;;13.30;67.10;;;;;;5011169;28;20437;-77
2020/12/05 07:58:01;;;;;;;1.25;1.10;;;13.30;67.20;;;;;;5009563;28;19910;-77
2020/12/05 08:00:36;;;;;;;1.80;1.20;;;13.30;67.20;;;;;;5004040;28;20386;-77
2020/12/05 08:03:30;;;;;;;1.67;1.20;;;13.30;67.10;;;;;;5012229;28;20036;-79
2020/12/05 08:06:17;;;;;;;1.88;1.27;;;13.30;67.10;;;;;;5004443;28;20100;-77
2020/12/05 08:08:51;;;;;;;1.70;1.38;;;13.30;67.10;;;;;;5018652;28;20025;-77
2020/12/05 08:11:20;;;;;;;1.83;1.17;;;13.30;67.10;;;;;;5003241;28;20174;-78
2020/12/05 08:14:31;;;;;;;;;;;;;;;;;;;;;
2020/12/05 08:17:02;;;;;;;1.83;1.33;;;13.30;67.00;;;;;;5008415;28;20048;-77
2020/12/05 08:19:42;;;;;;;3.78;1.40;;;13.30;66.90;;;;;;5030750;28;20281;-77
2020/12/05 08:22:28;;;;;;;1.60;1.25;;;13.30;66.90;;;;;;5028024;28;20120;-78
2020/12/05 08:25:02;;;;;;;1.52;1.23;;;13.30;66.90;;;;;;4999027;28;20025;-77
2020/12/05 08:27:31;;;;;;;2.60;1.60;;;13.30;66.80;;;;;;5016469;28;20033;-77
2020/12/05 08:30:01;;;;;;;1.58;1.13;;;13.30;66.80;;;;;;5026029;28;20026;-77
2020/12/05 08:32:37;;;;;;;2.30;1.30;;;13.40;66.80;;;;;;5011324;28;20018;-78
2020/12/05 08:35:08;;;;;;;4.93;1.77;;;13.40;66.80;;;;;;5011342;28;20029;-77
2020/12/05 08:37:42;;;;;;;2.38;1.40;;;13.40;66.80;;;;;;5011638;28;20087;-76
2020/12/05 08:40:27;;;;;;;2.42;1.13;;;13.40;66.80;;;;;;5028312;28;20040;-76
2020/12/05 08:43:12;;;;;;;1.67;1.27;;;13.30;66.80;;;;;;5018499;28;20025;-79
2020/12/05 08:45:41;;;;;;;2.38;1.70;;;13.40;66.80;;;;;;5004848;28;20096;-79
2020/12/05 08:48:24;;;;;;;2.42;1.23;;;13.40;66.80;;;;;;5010915;28;20024;-77
2020/12/05 08:51:11;;;;;;;1.30;0.77;;;13.40;66.80;;;;;;5029967;28;20021;-79
2020/12/05 08:53:46;;;;;;;2.65;1.30;;;13.40;66.80;;;;;;5026753;28;20429;-77
2020/12/05 08:56:20;;;;;;;2.85;1.58;;;13.40;66.80;;;;;;5004818;28;20382;-77
2020/12/05 08:58:54;;;;;;;1.42;1.30;;;13.40;66.80;;;;;;5026931;28;20025;-80
2020/12/05 09:01:26;;;;;;;1.55;1.30;;;13.40;66.80;;;;;;5023021;28;20018;-79
2020/12/05 09:04:15;;;;;;;2.25;1.40;;;13.40;66.80;;;;;;5026863;28;20081;-77
2020/12/05 09:06:44;;;;;;;1.58;1.10;;;13.40;66.80;;;;;;5022877;28;20092;-77
2020/12/05 09:09:10;;;;;;;2.65;1.55;;;13.40;66.70;;;;;;5012482;28;20021;-77
2020/12/05 09:11:48;;;;;;;2.08;1.35;;;13.40;66.80;;;;;;5027984;28;20475;-77
2020/12/05 09:14:34;;;;;;;2.38;1.52;;;13.40;66.80;;;;;;5027513;28;20017;-77
2020/12/05 09:17:27;;;;;;;2.28;1.20;;;13.40;66.80;;;;;;5026245;28;20612;-80
2020/12/05 09:20:14;;;;;;;1.70;1.15;;;13.40;66.80;;;;;;5005599;28;20034;-77
2020/12/05 09:22:49;;;;;;;1.98;1.23;;;13.40;66.80;;;;;;5018965;28;20136;-76
2020/12/05 09:25:30;;;;;;;2.08;1.25;;;13.40;66.80;;;;;;5005292;28;20096;-80
2020/12/05 09:28:00;;;;;;;2.38;1.58;;;13.40;66.70;;;;;;5030583;28;20080;-76
2020/12/05 09:30:38;;;;;;;3.60;1.60;;;13.40;66.70;;;;;;5027951;28;20017;-76
2020/12/05 09:33:15;;;;;;;3.00;1.58;;;13.50;66.70;;;;;;5013233;28;20017;-76
2020/12/05 09:35:50;;;;;;;2.08;1.55;;;13.40;66.70;;;;;;5040858;28;20466;-76
2020/12/05 09:38:25;;;;;;;1.95;1.45;;;13.50;66.70;;;;;;5015490;28;20025;-78
2020/12/05 09:40:55;;;;;;;2.08;1.50;;;13.50;66.60;;;;;;5027085;28;20038;-77
2020/12/05 09:43:29;;;;;;;1.80;1.30;;;13.50;66.60;;;;;;5012680;28;20022;-77
2020/12/05 09:46:11;;;;;;;1.83;1.40;;;13.40;66.60;;;;;;5009176;28;20334;-76
2020/12/05 09:48:45;;;;;;;2.35;1.55;;;13.50;66.60;;;;;;5027988;28;20128;-77
2020/12/05 09:51:16;;;;;;;1.95;1.60;;;13.50;66.70;;;;;;5012886;28;20104;-77
2020/12/05 09:53:48;;;;;;;2.65;1.48;;;13.50;66.70;;;;;;5014173;28;20028;-77
2020/12/05 09:56:17;;;;;;;2.20;1.80;;;13.50;66.70;;;;;;5029457;28;20022;-79
2020/12/05 09:59:01;;;;;;;1.75;1.27;;;13.40;66.70;;;;;;5023818;28;20025;-77
2020/12/05 10:01:40;;;;;;;2.13;1.50;;;13.50;66.70;;;;;;5031706;28;20017;-78
2020/12/05 10:04:08;;;;;;;3.08;1.65;;;13.50;66.70;;;;;;5020877;28;20061;-78
2020/12/05 10:06:40;;;;;;;1.92;1.30;;;13.40;66.70;;;;;;5027547;28;20021;-77
2020/12/05 10:09:20;;;;;;;1.80;1.27;;;13.40;66.70;;;;;;5005883;28;20061;-78
2020/12/05 10:12:29;;;;;;;1.85;1.30;;;13.40;66.80;;;;;;4992026;28;20034;-76
2020/12/05 10:15:15;;;;;;;2.67;1.48;;;13.40;66.80;;;;;;4974270;28;20065;-78
2020/12/05 10:18:03;;;;;;;2.50;1.33;;;13.50;66.80;;;;;;5004836;28;20499;-76
2020/12/05 10:21:11;;;;;;;2.58;1.58;;;13.50;66.80;;;;;;4974957;28;20116;-80
2020/12/05 10:23:58;;;;;;;2.97;1.45;;;13.50;66.80;;;;;;4961892;28;20088;-76
2020/12/05 10:26:35;;;;;;;3.42;1.65;;;13.50;66.80;;;;;;4996684;28;20372;-76
2020/12/05 10:29:30;;;;;;;2.05;1.27;;;13.50;66.80;;;;;;5010624;28;20432;-76
2020/12/05 10:32:32;;;;;;;2.20;1.05;;;13.40;66.80;;;;;;5014831;28;20049;-76
2020/12/05 10:38:38;;;;;;;2.45;1.52;;;13.50;66.80;;;;;;4997921;28;20435;-76
2020/12/05 10:41:09;;;;;;;1.83;1.45;;;13.50;66.80;;;;;;4987821;28;20072;-78
2020/12/05 10:44:06;;;;;;;3.28;1.35;;;13.50;66.80;;;;;;4994855;28;20038;-77
2020/12/05 10:46:49;;;;;;;3.30;1.60;;;13.40;66.80;;;;;;5007325;28;20030;-78
2020/12/05 10:49:19;;;;;;;2.53;1.35;;;13.50;66.80;;;;;;4995718;28;20037;-77
2020/12/05 10:51:50;;;;;;;1.92;1.33;;;13.50;66.80;;;;;;4999176;28;20022;-76
2020/12/05 10:54:24;;;;;;;2.70;1.85;;;13.40;66.80;;;;;;4976457;28;20412;-75
2020/12/05 10:56:58;;;;;;;1.48;1.25;;;13.50;66.80;;;;;;5009549;28;20052;-73
2020/12/05 10:59:35;;;;;;;2.13;1.42;;;13.50;66.80;;;;;;4996252;28;20129;-76
2020/12/05 11:02:08;;;;;;;2.00;1.30;;;13.50;66.90;;;;;;5005642;28;20040;-73
2020/12/05 11:04:39;;;;;;;4.88;1.45;;;13.50;66.80;;;;;;5010634;28;20831;-75
2020/12/05 11:07:07;;;;;;;3.42;1.48;;;13.50;67.00;;;;;;5027226;28;20038;-74
2020/12/05 11:09:41;;;;;;;4.47;1.23;;;13.50;67.00;;;;;;5030186;28;20045;-75
2020/12/05 11:12:08;;;;;;;3.97;1.55;;;13.50;67.00;;;;;;5010847;28;20084;-73
2020/12/05 11:14:44;;;;;;;2.30;1.40;;;13.50;67.00;;;;;;5010369;28;20046;-75
2020/12/05 11:17:18;;;;;;;2.28;1.55;;;13.50;67.10;;;;;;5012563;28;20104;-74
2020/12/05 11:19:49;;;;;;;1.80;1.63;;;13.50;67.10;;;;;;5012344;28;20046;-74
2020/12/05 11:22:24;;;;;;;1.88;1.40;;;13.50;67.10;;;;;;4996022;28;20037;-74
2020/12/05 11:24:57;;;;;;;2.13;1.48;;;13.50;67.00;;;;;;5021994;28;20108;-75
2020/12/05 11:27:30;;;;;;;2.80;1.40;;;13.50;67.00;;;;;;5009589;28;20033;-74
2020/12/05 11:30:01;;;;;;;2.17;1.55;;;13.50;66.90;;;;;;5008514;28;20431;-77
2020/12/05 11:32:41;;;;;;;9.98;1.58;;;13.50;67.00;;;;;;5002709;28;20369;-74
2020/12/05 11:35:17;;;;;;;1.73;1.33;;;13.50;67.10;;;;;;5006746;28;20029;-75
2020/12/05 11:38:00;;;;;;;5.95;2.50;;;13.50;67.10;;;;;;5029716;28;20037;-75
2020/12/05 11:40:47;;;;;;;1.77;1.20;;;13.50;67.10;;;;;;4993235;28;20068;-76
2020/12/05 11:43:24;;;;;;;2.22;1.70;;;13.50;67.10;;;;;;5034862;28;20036;-74
2020/12/05 11:45:54;;;;;;;2.63;1.80;;;13.50;67.10;;;;;;5010695;28;20120;-76
2020/12/05 11:48:41;;;;;;;2.55;1.58;;;13.50;67.10;;;;;;5034202;28;20520;-75
2020/12/05 11:51:21;;;;;;;;;;;;;;;;;;;;;
2020/12/05 11:54:16;;;;;;;2.35;1.50;;;13.50;67.00;;;;;;5026098;28;20033;-74
2020/12/05 11:56:49;;;;;;;1.98;1.52;;;13.50;67.00;;;;;;5014448;28;20053;-74
2020/12/05 11:59:33;;;;;;;1.98;1.35;;;13.50;67.00;;;;;;5012822;28;20116;-74
2020/12/05 12:02:13;;;;;;;1.83;1.42;;;13.50;67.00;;;;;;5011656;28;20061;-74
2020/12/05 12:04:53;;;;;;;1.70;1.25;;;13.50;67.00;;;;;;5013193;28;20133;-73
2020/12/05 12:07:30;;;;;;;2.47;1.33;;;13.50;66.90;;;;;;5026532;28;20116;-74
2020/12/05 12:10:02;;;;;;;1.92;1.55;;;13.50;66.90;;;;;;5011743;28;20076;-74
2020/12/05 12:12:32;;;;;;;2.08;1.48;;;13.50;66.90;;;;;;5011448;28;20052;-73
2020/12/05 12:15:11;;;;;;;4.85;1.50;;;13.50;66.90;;;;;;4995246;28;20033;-73
2020/12/05 12:17:41;;;;;;;1.95;1.38;;;13.50;67.00;;;;;;4995214;28;20029;-74
2020/12/05 12:20:17;;;;;;;2.42;1.73;;;13.50;66.90;;;;;;5011438;28;20036;-73
2020/12/05 12:22:54;;;;;;;2.45;1.50;;;13.50;66.90;;;;;;5026424;28;20100;-73
2020/12/05 12:25:22;;;;;;;1.48;1.30;;;13.50;66.90;;;;;;4991725;28;20045;-76
2020/12/05 12:27:54;;;;;;;2.95;1.35;;;13.50;66.90;;;;;;5003681;28;20079;-74
2020/12/05 12:30:26;;;;;;;3.80;1.30;;;13.50;66.90;;;;;;5011643;28;20029;-77
2020/12/05 12:33:32;;;;;;;2.40;1.60;;;13.50;66.90;;;;;;5003745;28;20029;-73
2020/12/05 12:36:00;;;;;;;2.20;1.13;;;13.50;66.90;;;;;;5026987;28;20034;-76
2020/12/05 12:38:26;;;;;;;3.65;1.30;;;13.50;66.90;;;;;;5027989;28;20045;-72
2020/12/05 12:41:08;;;;;;;2.00;1.65;;;13.50;66.90;;;;;;4995985;28;20052;-74
2020/12/05 12:43:58;;;;;;;;;;;;;;;;;;;;;
2020/12/05 12:46:27;;;;;;;2.05;1.25;;;13.50;66.90;;;;;;4996984;28;20036;-73
2020/12/05 12:48:55;;;;;;;2.80;1.50;;;13.50;66.90;;;;;;5012563;28;20033;-77
2020/12/05 12:51:28;;;;;;;3.10;1.50;;;13.50;66.90;;;;;;4995879;28;20129;-74
2020/12/05 12:53:59;;;;;;;2.25;1.50;;;13.50;66.80;;;;;;5012486;28;20076;-76
2020/12/05 12:57:08;;;;;;;2.35;1.45;;;13.50;66.80;;;;;;5013034;28;20319;-73
2020/12/05 12:59:48;;;;;;;1.83;1.30;;;13.50;66.80;;;;;;5003505;28;20021;-74
2020/12/05 13:02:19;;;;;;;1.73;1.20;;;13.50;66.90;;;;;;5032754;28;20030;-74
2020/12/05 13:05:00;;;;;;;1.40;1.30;;;13.50;66.80;;;;;;4985520;28;20049;-74
2020/12/05 13:07:37;;;;;;;2.17;1.30;;;13.50;66.80;;;;;;4981733;28;20510;-73
2020/12/05 13:10:10;;;;;;;2.92;1.58;;;13.50;66.70;;;;;;4994164;28;20034;-74
2020/12/05 13:12:42;;;;;;;2.17;1.40;;;13.50;66.70;;;;;;4992990;28;20065;-74
2020/12/05 13:15:15;;;;;;;2.70;1.63;;;13.50;66.70;;;;;;4996847;28;20033;-74
2020/12/05 13:17:46;;;;;;;3.45;1.60;;;13.50;66.80;;;;;;4994341;28;20131;-75
2020/12/05 13:20:26;;;;;;;2.13;1.50;;;13.50;66.80;;;;;;4979284;28;20382;-74
2020/12/05 13:23:00;;;;;;;1.98;1.50;;;13.50;66.80;;;;;;4994173;28;20030;-73
2020/12/05 13:25:40;;;;;;;4.25;1.42;;;13.50;66.80;;;;;;5006111;28;20032;-73
2020/12/05 13:28:10;;;;;;;3.17;1.60;;;13.40;66.80;;;;;;4974691;28;20037;-74
2020/12/05 13:30:37;;;;;;;5.07;2.13;;;13.50;66.80;;;;;;4994259;28;20022;-77
2020/12/05 13:33:08;;;;;;;1.92;1.35;;;13.50;66.80;;;;;;4995374;28;20025;-79
2020/12/05 13:35:37;;;;;;;4.70;1.52;;;13.40;66.80;;;;;;4993551;28;20104;-74
2020/12/05 13:38:07;;;;;;;3.90;1.92;;;13.50;66.90;;;;;;4995349;28;20033;-74
2020/12/05 13:40:48;;;;;;;2.85;1.48;;;13.40;66.80;;;;;;5017131;28;20034;-73
2020/12/05 13:43:27;;;;;;;3.95;1.80;;;13.40;66.80;;;;;;4994889;28;20038;-75
2020/12/05 13:46:01;;;;;;;2.10;1.52;;;13.50;66.90;;;;;;4989405;28;20045;-74
2020/12/05 13:48:30;;;;;;;5.78;1.88;;;13.40;66.80;;;;;;4989861;28;20451;-74
2020/12/05 13:50:59;;;;;;;2.00;1.30;;;13.50;66.90;;;;;;4975069;28;20380;-74